Salt Lake City, Utah
Current Conditions -  °F | °C
As of 6:53 AM on Saturday 25 Oct 2014 (Local Time) from KSLC Reporting Station
Clear Clear  
Wind Chill: 54°   Ceiling: Unl
Heat Index: 54°   Visibility: 10mi
Dew Point: 30°   Wind: 10mph
Humidity: 40%   Direction: 140°SE
Pressure: 30.07"   Gusts: NA
Location:  40.76°N, 111.88°W
Report Text: KSLC 251253Z 14009KT 10SM CLR 12/M01 A3007 RMK AO2 SLP149 T01221011
Loading
Personal Weather Stations






























Interactive Weather Map New forecast layout! Learn more

10-Day Weather Forecast

Advertisements
Track Severe Weather on mobile